This is the latest recevied weather packets stored in our database for station/object IN3XSV-13. If no packets are shown the sender has not sent any weather packets the latest 10 day(s).
| Time | Temp. | Humidity | Pressure | Rain* | Wind** | Luminosity | Snow |
|---|---|---|---|---|---|---|---|
| 1788083859 | 31.11° C | 45% | 1010.9 hPa | 0 mm | - | - | - |
| 1788083559 | 31.11° C | 46% | 1010.9 hPa | 0 mm | - | - | - |
| 1788083259 | 31.67° C | 45% | 1011 hPa | 0 mm | - | - | - |
| 1788082959 | 31.67° C | 46% | 1011.1 hPa | 0 mm | - | - | - |
| 1788082659 | 32.22° C | 44% | 1011.1 hPa | 0 mm | - | - | - |
| 1788082359 | 32.78° C | 44% | 1011 hPa | 0 mm | - | - | - |
| 1788082059 | 32.78° C | 45% | 1011.1 hPa | 0 mm | - | - | - |
| 1788081759 | 31.11° C | 48% | 1011.2 hPa | 0 mm | - | - | - |
| 1788081459 | 30.56° C | 48% | 1011.3 hPa | 0 mm | - | - | - |
| 1788081159 | 31.67° C | 48% | 1011.3 hPa | 0 mm | - | - | - |
| 1788080859 | 30.56° C | 49% | 1011.4 hPa | 0 mm | - | - | - |
| 1788080559 | 29.44° C | 50% | 1011.4 hPa | 0 mm | - | - | - |
| 1788080259 | 29.44° C | 50% | 1011.4 hPa | 0 mm | - | - | - |
| 1788079959 | 31.11° C | 48% | 1011.5 hPa | 0 mm | - | - | - |
| 1788079660 | 31.11° C | 47% | 1011.5 hPa | 0 mm | - | - | - |
| 1788079359 | 31.11° C | 48% | 1011.5 hPa | 0 mm | - | - | - |
| 1788079059 | 30.56° C | 49% | 1011.5 hPa | 0 mm | - | - | - |
| 1788078759 | 30° C | 50% | 1011.5 hPa | 0 mm | - | - | - |
| 1788078460 | 30.56° C | 51% | 1011.6 hPa | 0 mm | - | - | - |
| 1788078160 | 31.11° C | 50% | 1011.6 hPa | 0 mm | - | - | - |
| 1788077860 | 31.67° C | 49% | 1011.7 hPa | 0 mm | - | - | - |
| 1788077560 | 31.11° C | 51% | 1011.7 hPa | 0 mm | - | - | - |
| 1788077260 | 30° C | 52% | 1011.8 hPa | 0 mm | - | - | - |
| 1788076960 | 28.89° C | 53% | 1011.7 hPa | 0 mm | - | - | - |
| 1788076660 | 28.33° C | 55% | 1011.8 hPa | 0 mm | - | - | - |
* Rain latest hour (hover to see other rain measurements)
** Current wind speed in m/s (hover to see current wind gust speed)